createdAt,value
2019-05-23T00:02:14.176Z,63.80
2019-05-23T00:04:48.213Z,63.30
2019-05-23T00:07:18.521Z,64.00
2019-05-23T00:09:47.118Z,66.30
2019-05-23T00:12:45.676Z,64.20
2019-05-23T00:15:22.760Z,67.40
2019-05-23T00:17:50.640Z,64.70
2019-05-23T00:20:20.379Z,64.60
2019-05-23T00:22:48.850Z,64.50
2019-05-23T00:25:19.669Z,64.80
2019-05-23T00:27:49.211Z,65.90
2019-05-23T00:30:24.672Z,65.50
2019-05-23T00:32:56.305Z,65.70
2019-05-23T00:35:26.295Z,65.50
2019-05-23T00:37:55.385Z,70.20
2019-05-23T00:40:23.158Z,65.50
2019-05-23T00:42:51.672Z,65.40
2019-05-23T00:45:22.568Z,65.10
2019-05-23T00:47:52.912Z,65.50
2019-05-23T00:50:24.085Z,71.10
2019-05-23T00:52:54.796Z,68.60
2019-05-23T00:55:23.574Z,68.60
2019-05-23T01:00:24.020Z,69.70
2019-05-23T01:02:53.843Z,65.50
2019-05-23T01:05:22.601Z,71.70
2019-05-23T01:07:52.353Z,69.60
2019-05-23T01:10:24.531Z,73.30
2019-05-23T01:12:53.611Z,76.00
2019-05-23T01:15:24.021Z,72.00
2019-05-23T01:17:52.917Z,75.00
2019-05-23T01:20:26.211Z,75.60
2019-05-23T01:22:55.384Z,75.60
2019-05-23T01:25:28.818Z,72.50
2019-05-23T01:27:59.389Z,67.50
2019-05-23T01:30:30.952Z,68.70
2019-05-23T01:38:04.033Z,80.20
2019-05-23T01:40:33.161Z,69.90
2019-05-23T01:43:01.767Z,75.50
2019-05-23T01:45:32.661Z,80.10
2019-05-23T01:52:57.374Z,72.60
2019-05-23T01:57:55.448Z,69.50
2019-05-23T02:00:27.630Z,80.30
2019-05-23T02:02:56.342Z,73.90
2019-05-23T02:05:25.752Z,73.70
2019-05-23T02:07:54.735Z,71.70
2019-05-23T02:12:51.913Z,71.10
2019-05-23T02:15:20.551Z,72.30
2019-05-23T02:22:48.056Z,72.70
2019-05-23T02:25:18.971Z,81.80
2019-05-23T02:30:32.880Z,74.80
2019-05-23T02:32:49.545Z,82.60
2019-05-23T02:35:18.158Z,73.00
2019-05-23T02:38:01.867Z,73.20
2019-05-23T02:40:55.561Z,80.10
2019-05-23T02:43:25.991Z,73.70
2019-05-23T02:48:31.113Z,79.30
2019-05-23T02:51:03.227Z,83.40
2019-05-23T02:53:35.037Z,82.10
2019-05-23T02:56:07.445Z,80.90
2019-05-23T02:58:52.520Z,87.40
2019-05-23T03:02:26.905Z,75.10
2019-05-23T03:04:56.380Z,71.50
2019-05-23T03:09:56.691Z,86.90
2019-05-23T03:12:27.531Z,89.10
2019-05-23T03:14:58.377Z,81.70
2019-05-23T03:17:28.676Z,74.40
2019-05-23T03:19:58.696Z,71.80
2019-05-23T03:22:48.278Z,73.00
2019-05-23T03:27:54.599Z,75.60
2019-05-23T03:30:27.206Z,78.20
2019-05-23T03:32:59.843Z,82.80
2019-05-23T03:35:33.524Z,76.80
2019-05-23T03:38:02.017Z,84.80
2019-05-23T03:40:31.031Z,75.20
2019-05-23T03:43:00.645Z,75.10
2019-05-23T03:45:31.117Z,82.60
2019-05-23T03:52:56.394Z,78.40
2019-05-23T03:57:54.492Z,86.30
2019-05-23T04:00:32.359Z,82.10
2019-05-23T04:03:02.294Z,75.80
2019-05-23T04:05:31.158Z,77.60
2019-05-23T04:12:58.482Z,80.50
2019-05-23T04:17:55.219Z,74.10
2019-05-23T04:20:23.794Z,81.80
2019-05-23T04:22:52.038Z,77.20
2019-05-23T04:25:20.781Z,86.50
2019-05-23T04:30:18.075Z,85.90
2019-05-23T04:32:47.821Z,83.50
2019-05-23T04:35:16.450Z,79.20
2019-05-23T04:37:45.350Z,87.00
2019-05-23T04:40:13.594Z,87.40
2019-05-23T04:42:41.337Z,73.50
2019-05-23T04:47:38.828Z,76.50
2019-05-23T04:50:09.581Z,74.80
2019-05-23T04:52:38.317Z,73.50
2019-05-23T04:57:40.167Z,79.00
2019-05-23T05:02:39.511Z,69.90
2019-05-23T05:05:08.066Z,72.70
2019-05-23T05:07:36.973Z,77.40
2019-05-23T05:10:05.660Z,68.50
2019-05-23T05:12:33.938Z,77.20
2019-05-23T05:15:04.964Z,69.80
2019-05-23T05:17:33.200Z,69.30
2019-05-23T05:20:00.977Z,69.20
2019-05-23T05:27:25.809Z,76.10
2019-05-23T05:34:51.309Z,72.80
2019-05-23T05:37:19.036Z,66.30
2019-05-23T05:47:14.401Z,65.00
2019-05-23T05:52:11.197Z,71.50
2019-05-23T05:54:39.552Z,71.30
2019-05-23T05:59:35.100Z,63.50
2019-05-23T06:02:05.759Z,67.60
2019-05-23T06:12:14.460Z,64.30
2019-05-23T06:14:46.733Z,66.80
2019-05-23T06:19:44.052Z,61.60
2019-05-23T06:22:13.426Z,66.60
2019-05-23T06:27:13.810Z,60.80
2019-05-23T06:34:43.329Z,59.50
2019-05-23T06:37:11.463Z,59.00
2019-05-23T06:39:42.065Z,64.80
2019-05-23T06:42:10.785Z,60.80
2019-05-23T06:49:36.846Z,60.50
2019-05-23T06:54:33.701Z,58.50
2019-05-23T06:59:30.788Z,59.90
2019-05-23T07:01:59.145Z,58.30
2019-05-23T07:04:27.957Z,59.00
2019-05-23T07:06:56.542Z,59.10
2019-05-23T07:11:57.246Z,57.00
2019-05-23T07:14:25.281Z,56.00
2019-05-23T07:16:53.783Z,54.20
2019-05-23T07:21:51.029Z,50.10
2019-05-23T07:24:19.493Z,49.90
2019-05-23T07:26:48.684Z,49.40
2019-05-23T07:29:18.105Z,47.00
2019-05-23T07:31:46.685Z,46.30
2019-05-23T07:34:15.985Z,48.40
2019-05-23T07:36:44.214Z,44.80
2019-05-23T07:39:13.169Z,46.80
2019-05-23T07:41:41.566Z,43.20
2019-05-23T07:44:10.361Z,44.60
2019-05-23T07:46:39.417Z,44.00
2019-05-23T07:49:07.480Z,39.80
2019-05-23T07:51:35.676Z,39.90
2019-05-23T07:54:23.907Z,40.00
2019-05-23T07:56:52.713Z,39.20
2019-05-23T08:01:54.401Z,38.70
2019-05-23T08:04:25.027Z,35.30
2019-05-23T08:09:23.196Z,35.40
2019-05-23T08:11:51.478Z,40.40
2019-05-23T08:14:20.072Z,39.90
2019-05-23T08:19:19.599Z,42.30
2019-05-23T08:21:48.488Z,40.50
2019-05-23T08:24:16.540Z,38.80
2019-05-23T08:26:47.082Z,40.40
2019-05-23T08:29:26.111Z,30.90
2019-05-23T08:31:45.582Z,33.40
2019-05-23T08:34:14.604Z,33.70
2019-05-23T08:36:43.061Z,31.20
2019-05-23T08:39:13.756Z,39.60
2019-05-23T08:41:42.475Z,37.20
2019-05-23T08:44:11.566Z,36.10
2019-05-23T08:46:40.627Z,29.80
2019-05-23T08:51:38.491Z,29.00
2019-05-23T08:54:07.038Z,28.70
2019-05-23T08:56:36.281Z,30.40
2019-05-23T08:59:06.186Z,39.60
2019-05-23T09:01:34.407Z,39.30
2019-05-23T09:04:02.289Z,27.00
2019-05-23T09:09:04.099Z,29.10
2019-05-23T09:11:34.366Z,30.20
2019-05-23T09:14:04.342Z,32.90
2019-05-23T09:16:33.344Z,33.00
2019-05-23T09:19:02.030Z,35.50
2019-05-23T09:23:57.679Z,35.90
2019-05-23T09:26:26.108Z,35.80
2019-05-23T09:28:54.603Z,36.20
2019-05-23T09:31:23.601Z,38.10
2019-05-23T09:33:52.220Z,37.00
2019-05-23T09:36:20.771Z,41.20
2019-05-23T09:38:49.570Z,37.30
2019-05-23T09:41:17.842Z,35.30
2019-05-23T09:43:46.518Z,37.30
2019-05-23T09:46:15.594Z,37.80
2019-05-23T09:48:43.752Z,35.20
2019-05-23T09:51:11.777Z,37.30
2019-05-23T09:53:46.326Z,34.70
2019-05-23T09:56:11.073Z,37.60
2019-05-23T10:01:09.185Z,34.80
2019-05-23T10:03:37.646Z,35.80
2019-05-23T10:06:06.342Z,34.50
2019-05-23T10:08:35.573Z,38.80
2019-05-23T10:11:03.905Z,32.20
2019-05-23T10:13:39.129Z,33.10
2019-05-23T10:16:05.598Z,32.40
2019-05-23T10:18:34.048Z,32.80
2019-05-23T10:21:02.542Z,31.60
2019-05-23T10:23:31.040Z,33.20
2019-05-23T10:26:00.019Z,31.70
2019-05-23T10:28:28.807Z,31.00
2019-05-23T10:30:57.561Z,32.00
2019-05-23T10:33:25.996Z,31.50
2019-05-23T10:36:00.350Z,29.30
2019-05-23T10:38:28.688Z,29.70
2019-05-23T10:40:55.940Z,30.20
2019-05-23T10:43:25.520Z,29.90
2019-05-23T10:45:53.285Z,29.20
2019-05-23T10:48:22.216Z,31.10
2019-05-23T10:50:50.144Z,30.70
2019-05-23T10:53:18.681Z,29.80
2019-05-23T10:55:47.245Z,29.50
2019-05-23T10:58:16.342Z,30.00
2019-05-23T11:00:46.905Z,29.90
2019-05-23T11:03:15.740Z,28.80
2019-05-23T11:05:45.965Z,28.70
2019-05-23T11:08:14.949Z,29.50
2019-05-23T11:10:43.464Z,27.60
2019-05-23T11:13:11.876Z,28.80
2019-05-23T11:15:40.006Z,28.30
2019-05-23T11:18:09.901Z,29.80
2019-05-23T11:20:37.796Z,28.30
2019-05-23T11:23:06.566Z,31.80
2019-05-23T11:25:35.934Z,31.40
2019-05-23T11:28:04.941Z,29.80
2019-05-23T11:30:43.475Z,34.60
2019-05-23T11:33:17.583Z,33.90
2019-05-23T11:35:52.965Z,31.20
2019-05-23T11:38:25.236Z,30.20
2019-05-23T11:43:24.475Z,33.50
2019-05-23T11:51:24.489Z,34.70
2019-05-23T11:54:05.858Z,31.40
2019-05-23T11:56:23.705Z,31.70
2019-05-23T11:58:52.295Z,31.00
2019-05-23T12:01:24.795Z,30.90
2019-05-23T12:03:59.300Z,30.00
2019-05-23T12:06:56.574Z,31.50
2019-05-23T12:09:27.058Z,30.00
2019-05-23T12:14:25.473Z,36.30
2019-05-23T12:16:55.881Z,33.20
2019-05-23T12:19:24.369Z,36.40
2019-05-23T12:21:53.369Z,33.80
2019-05-23T12:24:21.737Z,32.70
2019-05-23T12:26:50.073Z,28.30
2019-05-23T12:29:20.445Z,30.20
2019-05-23T12:31:49.936Z,31.80
2019-05-23T12:34:18.169Z,30.80
2019-05-23T12:39:13.767Z,28.50
2019-05-23T12:41:42.454Z,29.40
2019-05-23T12:44:11.221Z,28.20
2019-05-23T12:46:39.561Z,28.50
2019-05-23T12:49:26.281Z,28.30
2019-05-23T12:51:56.324Z,37.10
2019-05-23T12:54:25.518Z,29.40
2019-05-23T12:56:58.623Z,27.60
2019-05-23T12:59:26.793Z,29.60
2019-05-23T13:04:27.068Z,28.60
2019-05-23T13:06:55.715Z,29.60
2019-05-23T13:09:24.905Z,30.30
2019-05-23T13:12:03.632Z,30.20
2019-05-23T13:14:32.242Z,29.60
2019-05-23T13:17:01.618Z,30.10
2019-05-23T13:19:30.621Z,29.30
2019-05-23T13:21:59.430Z,28.80
2019-05-23T13:24:28.505Z,29.20
2019-05-23T13:26:56.924Z,28.20
2019-05-23T13:29:27.507Z,29.40
2019-05-23T13:31:56.286Z,30.00
2019-05-23T13:34:24.490Z,31.40
2019-05-23T13:36:52.370Z,30.50
2019-05-23T13:39:21.602Z,31.50
2019-05-23T13:41:49.285Z,30.80
2019-05-23T13:44:33.121Z,30.70
2019-05-23T13:46:52.276Z,30.20
2019-05-23T13:49:20.000Z,31.60
2019-05-23T13:51:48.715Z,32.00
2019-05-23T13:54:16.869Z,31.50
2019-05-23T13:56:47.715Z,33.00
2019-05-23T13:59:16.099Z,30.20
2019-05-23T14:01:44.764Z,29.70
2019-05-23T14:04:13.584Z,31.10
2019-05-23T14:06:42.591Z,33.20
2019-05-23T14:09:12.008Z,32.20
2019-05-23T14:14:12.522Z,31.30
2019-05-23T14:16:59.715Z,30.10
2019-05-23T14:19:31.972Z,32.10
2019-05-23T14:22:05.600Z,29.60
2019-05-23T14:24:37.678Z,31.30
2019-05-23T14:27:30.234Z,31.50
2019-05-23T14:30:04.865Z,29.90
2019-05-23T14:32:46.663Z,29.90
2019-05-23T14:35:17.371Z,30.60
2019-05-23T14:37:47.008Z,32.70
2019-05-23T14:40:16.529Z,33.70
2019-05-23T14:43:08.294Z,30.90
2019-05-23T14:45:45.113Z,34.20
2019-05-23T14:48:33.062Z,33.80
2019-05-23T14:51:24.281Z,31.30
2019-05-23T15:01:22.856Z,37.50
2019-05-23T15:03:51.377Z,36.90
2019-05-23T15:06:28.758Z,35.10
2019-05-23T15:11:28.546Z,40.40
2019-05-23T15:21:24.932Z,37.30
2019-05-23T15:26:23.521Z,33.90
2019-05-23T15:28:51.671Z,36.30
2019-05-23T15:31:23.474Z,43.70
2019-05-23T15:33:55.383Z,43.50
2019-05-23T15:36:25.210Z,44.90
2019-05-23T15:51:22.744Z,39.10
2019-05-23T15:56:47.310Z,35.70
2019-05-23T16:05:04.464Z,36.60
2019-05-23T16:10:04.154Z,41.10
2019-05-23T16:12:33.156Z,40.00
2019-05-23T16:15:01.735Z,38.30
2019-05-23T16:17:32.131Z,39.90
2019-05-23T16:20:00.912Z,34.70
2019-05-23T16:24:59.691Z,43.50
2019-05-23T16:29:59.576Z,38.60
2019-05-23T16:32:28.512Z,40.30
2019-05-23T16:39:56.686Z,37.70
2019-05-23T16:42:26.113Z,41.30
2019-05-23T16:44:54.252Z,37.40
2019-05-23T16:52:23.222Z,37.60
2019-05-23T16:54:55.960Z,34.70
2019-05-23T16:57:32.151Z,39.80
2019-05-23T17:00:23.186Z,40.30
2019-05-23T17:09:03.913Z,35.00
2019-05-23T17:14:17.231Z,37.40
2019-05-23T17:17:08.657Z,35.50
2019-05-23T17:19:43.364Z,43.00
2019-05-23T17:24:59.011Z,36.30
2019-05-23T17:27:52.766Z,36.20
2019-05-23T17:30:27.654Z,44.40
2019-05-23T17:35:30.835Z,38.40
2019-05-23T17:38:01.988Z,38.20
2019-05-23T17:42:59.968Z,37.60
2019-05-23T17:58:05.548Z,40.80
2019-05-23T18:03:11.082Z,43.60
2019-05-23T18:08:10.711Z,37.10
2019-05-23T18:10:45.274Z,36.90
2019-05-23T18:15:42.477Z,41.30
2019-05-23T18:20:41.191Z,37.00
2019-05-23T18:23:11.509Z,38.90
2019-05-23T18:25:41.777Z,41.00
2019-05-23T18:28:13.633Z,38.70
2019-05-23T18:30:51.965Z,39.00
2019-05-23T18:38:18.613Z,38.00
2019-05-23T18:41:02.302Z,43.20
2019-05-23T18:43:21.117Z,40.20
2019-05-23T18:45:58.095Z,43.10
2019-05-23T18:48:26.850Z,38.60
2019-05-23T18:50:57.470Z,45.20
2019-05-23T18:53:26.288Z,44.60
2019-05-23T19:01:13.965Z,42.40
2019-05-23T19:11:20.238Z,48.90
2019-05-23T19:13:40.947Z,43.20
2019-05-23T19:16:09.605Z,44.80
2019-05-23T19:18:38.278Z,52.00
2019-05-23T19:21:07.840Z,47.70
2019-05-23T19:23:37.384Z,51.20
2019-05-23T19:26:08.594Z,51.80
2019-05-23T19:31:07.809Z,53.00
2019-05-23T19:36:06.531Z,47.70
2019-05-23T19:38:34.627Z,48.10
2019-05-23T19:41:05.052Z,53.90
2019-05-23T19:43:33.863Z,51.20
2019-05-23T19:46:03.630Z,48.70
2019-05-23T19:48:32.057Z,50.60
2019-05-23T19:51:00.967Z,50.50
2019-05-23T19:53:29.905Z,48.50
2019-05-23T19:55:58.698Z,48.50
2019-05-23T20:00:56.406Z,48.80
2019-05-23T20:03:24.581Z,50.90
2019-05-23T20:05:53.523Z,51.90
2019-05-23T20:08:21.573Z,53.50
2019-05-23T20:10:49.965Z,50.40
2019-05-23T20:13:20.122Z,49.20
2019-05-23T20:15:48.542Z,49.30
2019-05-23T20:18:20.915Z,51.00
2019-05-23T20:20:49.304Z,49.80
2019-05-23T20:23:20.181Z,58.60
2019-05-23T20:25:48.316Z,50.10
2019-05-23T20:30:52.787Z,49.80
2019-05-23T20:33:22.584Z,50.60
2019-05-23T20:35:51.241Z,50.00
2019-05-23T20:40:51.422Z,49.80
2019-05-23T20:43:19.909Z,50.50
2019-05-23T20:45:48.309Z,49.80
2019-05-23T20:48:16.785Z,49.50
2019-05-23T20:55:40.754Z,52.00
2019-05-23T20:58:09.390Z,49.50
2019-05-23T21:01:00.721Z,51.60
2019-05-23T21:03:30.917Z,49.60
2019-05-23T21:05:59.080Z,49.30
2019-05-23T21:08:26.839Z,49.20
2019-05-23T21:10:55.727Z,49.40
2019-05-23T21:13:30.558Z,51.00
2019-05-23T21:15:58.941Z,49.50
2019-05-23T21:18:27.389Z,49.80
2019-05-23T21:20:55.028Z,50.50
2019-05-23T21:25:58.585Z,49.70
2019-05-23T21:28:26.246Z,49.90
2019-05-23T21:30:54.401Z,49.80
2019-05-23T21:33:23.528Z,50.40
2019-05-23T21:35:51.836Z,50.20
2019-05-23T21:38:21.019Z,50.10
2019-05-23T21:40:48.863Z,50.40
2019-05-23T21:43:16.942Z,50.40
2019-05-23T21:45:45.518Z,50.00
2019-05-23T21:50:42.613Z,50.90
2019-05-23T21:53:11.733Z,50.40
2019-05-23T21:55:41.869Z,50.30
2019-05-23T21:58:11.760Z,50.30
2019-05-23T22:01:25.280Z,50.10
2019-05-23T22:04:13.793Z,50.30
2019-05-23T22:06:46.433Z,50.50
2019-05-23T22:09:14.993Z,50.60
2019-05-23T22:14:12.418Z,51.20
2019-05-23T22:16:41.221Z,53.40
2019-05-23T22:19:12.589Z,53.00
2019-05-23T22:21:40.274Z,50.80
2019-05-23T22:24:09.255Z,50.80
2019-05-23T22:26:37.636Z,50.70
2019-05-23T22:29:05.974Z,50.40
2019-05-23T22:31:35.215Z,50.20
2019-05-23T22:34:13.310Z,50.50
2019-05-23T22:36:42.296Z,50.70
2019-05-23T22:39:10.798Z,51.00
2019-05-23T22:41:40.530Z,50.60
2019-05-23T22:44:09.124Z,50.90
2019-05-23T22:46:37.649Z,51.10
2019-05-23T22:49:05.348Z,50.50
2019-05-23T22:51:34.087Z,50.70
2019-05-23T22:54:03.619Z,50.50
2019-05-23T22:56:32.002Z,51.00
2019-05-23T22:58:59.618Z,50.40
2019-05-23T23:01:28.857Z,50.40
2019-05-23T23:03:57.765Z,50.80
2019-05-23T23:08:54.184Z,51.40
2019-05-23T23:11:22.181Z,51.80
2019-05-23T23:13:50.263Z,51.40
2019-05-23T23:16:19.136Z,51.40
2019-05-23T23:18:47.314Z,52.10
2019-05-23T23:21:15.073Z,52.10
2019-05-23T23:23:43.029Z,52.20
2019-05-23T23:26:11.135Z,52.60
2019-05-23T23:28:38.908Z,51.70
2019-05-23T23:31:06.636Z,52.40
2019-05-23T23:33:36.051Z,52.30
2019-05-23T23:36:03.712Z,53.10
2019-05-23T23:38:33.001Z,52.50
2019-05-23T23:41:01.503Z,52.10
2019-05-23T23:43:37.294Z,52.30
2019-05-23T23:46:40.052Z,52.30
2019-05-23T23:49:27.279Z,52.30
2019-05-23T23:52:14.284Z,52.40
2019-05-23T23:55:00.870Z,52.00
2019-05-23T23:57:46.880Z,52.60
